createdAt,value
2022-10-23T00:02:26.047Z,12.83
2022-10-23T00:04:52.704Z,12.81
2022-10-23T00:07:19.458Z,12.77
2022-10-23T00:09:46.379Z,12.72
2022-10-23T00:12:12.869Z,12.70
2022-10-23T00:14:41.512Z,12.77
2022-10-23T00:17:10.045Z,12.76
2022-10-23T00:19:36.568Z,12.79
2022-10-23T00:22:03.153Z,12.80
2022-10-23T00:24:29.792Z,12.81
2022-10-23T00:26:56.373Z,12.80
2022-10-23T00:29:23.606Z,12.83
2022-10-23T00:31:50.095Z,12.86
2022-10-23T00:34:18.931Z,12.85
2022-10-23T00:36:45.871Z,12.85
2022-10-23T00:39:15.085Z,12.91
2022-10-23T00:41:42.390Z,12.95
2022-10-23T00:44:10.740Z,12.99
2022-10-23T00:46:38.529Z,13.07
2022-10-23T00:49:06.671Z,13.04
2022-10-23T00:51:38.025Z,12.99
2022-10-23T00:54:23.857Z,13.05
2022-10-23T00:56:54.807Z,12.97
2022-10-23T00:59:26.103Z,12.89
2022-10-23T01:01:54.370Z,12.88
2022-10-23T01:04:21.965Z,12.83
2022-10-23T01:06:48.623Z,12.87
2022-10-23T01:09:20.849Z,12.85
2022-10-23T01:11:55.616Z,12.79
2022-10-23T01:14:22.172Z,12.78
2022-10-23T01:16:51.693Z,12.65
2022-10-23T01:19:27.665Z,12.74
2022-10-23T01:21:58.746Z,12.65
2022-10-23T01:24:28.695Z,12.66
2022-10-23T01:26:55.226Z,12.61
2022-10-23T01:29:45.218Z,12.63
2022-10-23T01:32:19.450Z,12.70
2022-10-23T01:34:51.276Z,12.67
2022-10-23T01:37:22.853Z,12.66
2022-10-23T01:39:52.326Z,12.61
2022-10-23T01:42:21.797Z,12.51
2022-10-23T01:44:51.115Z,12.52
2022-10-23T01:49:58.204Z,12.57
2022-10-23T01:52:24.918Z,12.45
2022-10-23T01:54:54.698Z,12.37
2022-10-23T01:57:22.409Z,12.36
2022-10-23T01:59:53.049Z,12.34
2022-10-23T02:02:22.203Z,12.39
2022-10-23T02:05:07.262Z,12.36
2022-10-23T02:07:35.045Z,12.36
2022-10-23T02:10:03.294Z,12.33
2022-10-23T02:12:36.903Z,12.25
2022-10-23T02:15:03.518Z,12.27
2022-10-23T02:17:39.456Z,12.24
2022-10-23T02:20:19.562Z,12.23
2022-10-23T02:22:55.011Z,12.18
2022-10-23T02:25:27.924Z,12.20
2022-10-23T02:27:58.053Z,12.22
2022-10-23T02:30:29.481Z,12.20
2022-10-23T02:33:07.340Z,12.18
2022-10-23T02:35:35.574Z,12.13
2022-10-23T02:38:28.072Z,12.12
2022-10-23T02:40:57.592Z,12.09
2022-10-23T02:43:25.968Z,12.11
2022-10-23T02:45:52.717Z,12.06
2022-10-23T02:48:25.229Z,12.08
2022-10-23T02:50:55.039Z,12.08
2022-10-23T02:53:28.030Z,12.07
2022-10-23T02:55:54.693Z,12.11
2022-10-23T02:58:41.545Z,12.07
2022-10-23T03:01:14.387Z,12.04
2022-10-23T03:03:43.979Z,11.99
2022-10-23T03:06:10.662Z,12.03
2022-10-23T03:08:44.643Z,12.01
2022-10-23T03:11:23.909Z,12.05
2022-10-23T03:13:50.682Z,12.11
2022-10-23T03:16:17.527Z,12.17
2022-10-23T03:18:49.786Z,12.10
2022-10-23T03:21:17.418Z,12.08
2022-10-23T03:23:44.007Z,12.00
2022-10-23T03:26:14.275Z,12.01
2022-10-23T03:28:42.649Z,12.06
2022-10-23T03:31:09.520Z,12.02
2022-10-23T03:33:38.240Z,12.06
2022-10-23T03:36:11.131Z,12.08
2022-10-23T03:38:38.466Z,12.03
2022-10-23T03:41:05.319Z,11.99
2022-10-23T03:43:32.023Z,12.01
2022-10-23T03:45:58.713Z,11.99
2022-10-23T03:48:25.817Z,11.94
2022-10-23T03:50:57.357Z,11.90
2022-10-23T03:53:23.863Z,11.97
2022-10-23T03:55:50.504Z,11.97
2022-10-23T03:58:17.249Z,12.05
2022-10-23T04:03:15.419Z,12.11
2022-10-23T04:05:42.534Z,12.09
2022-10-23T04:08:09.705Z,12.08
2022-10-23T04:10:36.319Z,12.11
2022-10-23T04:13:03.052Z,12.10
2022-10-23T04:15:32.864Z,12.09
2022-10-23T04:18:01.337Z,12.12
2022-10-23T04:20:28.142Z,12.17
2022-10-23T04:22:54.820Z,12.14
2022-10-23T04:25:21.497Z,12.18
2022-10-23T04:27:48.412Z,12.18
2022-10-23T04:30:15.049Z,12.17
2022-10-23T04:32:42.257Z,12.17
2022-10-23T04:35:08.858Z,12.17
2022-10-23T04:37:35.540Z,12.12
2022-10-23T04:40:04.401Z,12.10
2022-10-23T04:42:35.182Z,12.14
2022-10-23T04:45:02.668Z,12.09
2022-10-23T04:47:30.699Z,12.09
2022-10-23T04:49:58.806Z,12.06
2022-10-23T04:52:44.555Z,12.05
2022-10-23T04:55:29.971Z,12.04
2022-10-23T04:58:12.616Z,12.00
2022-10-23T05:00:39.309Z,12.08
2022-10-23T05:03:06.274Z,12.08
2022-10-23T05:05:39.382Z,12.15
2022-10-23T05:08:35.409Z,12.11
2022-10-23T05:11:20.537Z,12.12
2022-10-23T05:13:49.018Z,12.14
2022-10-23T05:16:38.907Z,12.18
2022-10-23T05:19:07.230Z,12.20
2022-10-23T05:21:35.476Z,12.23
2022-10-23T05:24:05.062Z,12.24
2022-10-23T05:26:31.865Z,12.26
2022-10-23T05:29:03.217Z,12.35
2022-10-23T05:31:30.578Z,12.41
2022-10-23T05:34:04.782Z,12.36
2022-10-23T05:36:31.670Z,12.40
2022-10-23T05:38:58.669Z,12.40
2022-10-23T05:41:25.858Z,12.41
2022-10-23T05:43:55.821Z,12.45
2022-10-23T05:46:42.613Z,12.47
2022-10-23T05:49:25.506Z,12.50
2022-10-23T05:52:14.721Z,12.51
2022-10-23T05:55:01.556Z,12.52
2022-10-23T05:57:53.044Z,12.50
2022-10-23T06:00:30.774Z,12.53
2022-10-23T06:03:08.553Z,12.51
2022-10-23T06:05:37.420Z,12.52
2022-10-23T06:08:17.901Z,12.53
2022-10-23T06:10:44.388Z,12.64
2022-10-23T06:13:11.273Z,12.75
2022-10-23T06:15:39.049Z,12.77
2022-10-23T06:18:10.298Z,12.77
2022-10-23T06:20:43.783Z,12.75
2022-10-23T06:23:16.403Z,12.74
2022-10-23T06:26:17.339Z,12.82
2022-10-23T06:28:55.278Z,12.81
2022-10-23T06:31:26.176Z,12.91
2022-10-23T06:33:53.750Z,12.92
2022-10-23T06:36:20.690Z,12.98
2022-10-23T06:38:48.906Z,13.05
2022-10-23T06:41:17.343Z,13.13
2022-10-23T06:43:49.049Z,13.13
2022-10-23T06:46:22.018Z,13.18
2022-10-23T06:49:07.089Z,13.17
2022-10-23T06:51:41.103Z,13.21
2022-10-23T06:54:11.497Z,13.30
2022-10-23T06:56:51.041Z,13.34
2022-10-23T06:59:24.889Z,13.44
2022-10-23T07:01:52.389Z,13.52
2022-10-23T07:04:19.311Z,13.62
2022-10-23T07:06:45.978Z,13.69
2022-10-23T07:09:12.676Z,13.69
2022-10-23T07:11:54.290Z,13.76
2022-10-23T07:14:26.871Z,13.83
2022-10-23T07:16:54.686Z,13.88
2022-10-23T07:19:21.443Z,13.95
2022-10-23T07:21:54.847Z,13.94
2022-10-23T07:24:28.375Z,13.88
2022-10-23T07:26:57.950Z,13.91
2022-10-23T07:29:27.782Z,13.96
2022-10-23T07:31:54.552Z,13.99
2022-10-23T07:34:25.729Z,14.09
2022-10-23T07:37:08.185Z,14.13
2022-10-23T07:39:35.250Z,14.14
2022-10-23T07:42:02.390Z,14.10
2022-10-23T07:44:29.052Z,14.17
2022-10-23T07:46:55.707Z,14.23
2022-10-23T07:49:22.243Z,14.26
2022-10-23T07:51:51.355Z,14.13
2022-10-23T07:54:19.053Z,14.22
2022-10-23T07:56:45.671Z,14.25
2022-10-23T07:59:17.506Z,14.20
2022-10-23T08:01:56.427Z,14.14
2022-10-23T08:04:27.639Z,14.20
2022-10-23T08:07:00.461Z,14.28
2022-10-23T08:09:28.344Z,14.15
2022-10-23T08:11:56.084Z,14.26
2022-10-23T08:14:23.535Z,14.24
2022-10-23T08:16:50.269Z,14.31
2022-10-23T08:19:17.186Z,14.27
2022-10-23T08:21:44.941Z,14.26
2022-10-23T08:24:13.344Z,14.23
2022-10-23T08:26:40.728Z,14.25
2022-10-23T08:29:07.785Z,14.41
2022-10-23T08:31:34.726Z,14.45
2022-10-23T08:34:18.205Z,14.46
2022-10-23T08:36:46.023Z,14.51
2022-10-23T08:39:13.348Z,14.35
2022-10-23T08:41:48.694Z,14.47
2022-10-23T08:44:21.504Z,14.50
2022-10-23T08:46:54.072Z,14.52
2022-10-23T08:49:46.917Z,14.57
2022-10-23T08:52:26.076Z,14.63
2022-10-23T08:54:57.293Z,14.67
2022-10-23T08:57:25.873Z,14.73
2022-10-23T08:59:57.510Z,14.96
2022-10-23T09:02:27.242Z,15.01
2022-10-23T09:04:55.017Z,14.93
2022-10-23T09:07:33.533Z,15.00
2022-10-23T09:10:14.698Z,14.94
2022-10-23T09:12:41.512Z,14.91
2022-10-23T09:15:27.932Z,14.89
2022-10-23T09:17:59.859Z,15.01
2022-10-23T09:20:35.337Z,15.05
2022-10-23T09:23:22.269Z,15.21
2022-10-23T09:25:54.723Z,15.31
2022-10-23T09:28:22.634Z,15.43
2022-10-23T09:30:49.856Z,15.56
2022-10-23T09:33:18.250Z,15.61
2022-10-23T09:36:01.433Z,15.64
2022-10-23T09:38:33.964Z,15.57
2022-10-23T09:41:10.994Z,15.44
2022-10-23T09:43:38.204Z,15.55
2022-10-23T09:46:07.533Z,15.75
2022-10-23T09:48:36.110Z,15.84
2022-10-23T09:51:23.326Z,15.88
2022-10-23T09:53:59.935Z,16.11
2022-10-23T09:56:30.786Z,16.20
2022-10-23T09:59:09.034Z,16.20
2022-10-23T10:01:45.083Z,16.26
2022-10-23T10:04:36.355Z,16.29
2022-10-23T10:07:06.796Z,16.32
2022-10-23T10:09:33.930Z,16.35
2022-10-23T10:12:23.594Z,16.46
2022-10-23T10:15:12.756Z,16.68
2022-10-23T10:17:58.320Z,16.77
2022-10-23T10:20:34.095Z,16.82
2022-10-23T10:23:07.106Z,16.89
2022-10-23T10:25:33.664Z,16.92
2022-10-23T10:28:03.302Z,17.11
2022-10-23T10:30:36.571Z,17.29
2022-10-23T10:33:03.412Z,17.40
2022-10-23T10:35:39.100Z,17.32
2022-10-23T10:38:08.737Z,17.42
2022-10-23T10:40:38.064Z,17.41
2022-10-23T10:43:23.907Z,17.38
2022-10-23T10:45:53.708Z,17.38
2022-10-23T10:48:20.293Z,17.32
2022-10-23T10:51:07.706Z,17.28
2022-10-23T10:53:54.128Z,17.16
2022-10-23T10:56:23.497Z,17.02
2022-10-23T10:58:52.523Z,17.08
2022-10-23T11:01:28.683Z,17.24
2022-10-23T11:04:04.310Z,17.32
2022-10-23T11:06:34.481Z,17.35
2022-10-23T11:09:19.850Z,17.24
2022-10-23T11:11:48.759Z,17.27
2022-10-23T11:14:21.935Z,17.42
2022-10-23T11:17:08.325Z,17.63
2022-10-23T11:19:43.456Z,17.64
2022-10-23T11:22:31.396Z,17.55
2022-10-23T11:25:13.738Z,17.46
2022-10-23T11:28:03.342Z,17.38
2022-10-23T11:30:47.773Z,17.19
2022-10-23T11:33:33.208Z,17.37
2022-10-23T11:36:13.617Z,17.63
2022-10-23T11:38:41.432Z,17.86
2022-10-23T11:41:19.830Z,18.15
2022-10-23T11:43:56.907Z,18.43
2022-10-23T11:46:26.488Z,18.49
2022-10-23T11:48:54.350Z,18.46
2022-10-23T11:51:34.485Z,18.35
2022-10-23T11:54:16.470Z,18.31
2022-10-23T11:56:52.231Z,18.50
2022-10-23T11:59:25.513Z,18.65
2022-10-23T12:01:52.608Z,18.82
2022-10-23T12:04:25.044Z,18.97
2022-10-23T12:06:59.921Z,18.92
2022-10-23T12:09:29.325Z,18.82
2022-10-23T12:12:08.067Z,18.60
2022-10-23T12:14:39.243Z,18.51
2022-10-23T12:17:22.169Z,18.37
2022-10-23T12:19:54.675Z,18.12
2022-10-23T12:22:25.326Z,18.03
2022-10-23T12:24:56.827Z,18.12
2022-10-23T12:27:35.677Z,18.24
2022-10-23T12:30:02.206Z,18.34
2022-10-23T12:32:38.452Z,18.52
2022-10-23T12:35:20.519Z,18.75
2022-10-23T12:38:00.514Z,19.05
2022-10-23T12:40:29.739Z,19.22
2022-10-23T12:42:58.762Z,19.43
2022-10-23T12:45:32.020Z,19.73
2022-10-23T12:47:59.706Z,19.89
2022-10-23T12:50:27.739Z,20.07
2022-10-23T12:53:00.531Z,20.11
2022-10-23T12:55:33.529Z,20.04
2022-10-23T12:58:04.279Z,20.05
2022-10-23T13:00:31.190Z,19.89
2022-10-23T13:03:00.089Z,19.89
2022-10-23T13:05:27.639Z,19.82
2022-10-23T13:07:57.371Z,19.74
2022-10-23T13:10:34.245Z,19.50
2022-10-23T13:13:05.526Z,19.32
2022-10-23T13:15:39.585Z,19.16
2022-10-23T13:18:06.723Z,19.30
2022-10-23T13:20:34.729Z,19.82
2022-10-23T13:23:09.153Z,20.36
2022-10-23T13:25:40.178Z,20.71
2022-10-23T13:28:25.556Z,21.12
2022-10-23T13:31:03.342Z,21.49
2022-10-23T13:33:41.375Z,21.86
2022-10-23T13:36:08.417Z,21.77
2022-10-23T13:38:36.051Z,21.92
2022-10-23T13:41:04.481Z,21.95
2022-10-23T13:43:32.412Z,22.11
2022-10-23T13:46:00.446Z,22.15
2022-10-23T13:48:27.172Z,22.40
2022-10-23T13:50:53.957Z,22.73
2022-10-23T13:53:21.658Z,23.01
2022-10-23T13:55:52.532Z,23.01
2022-10-23T13:58:21.494Z,23.20
2022-10-23T14:00:49.169Z,23.49
2022-10-23T14:03:16.701Z,23.68
2022-10-23T14:05:43.504Z,23.81
2022-10-23T14:08:10.267Z,23.84
2022-10-23T14:10:37.398Z,24.06
2022-10-23T14:13:04.123Z,24.06
2022-10-23T14:15:30.687Z,24.07
2022-10-23T14:17:59.472Z,24.06
2022-10-23T14:20:28.238Z,24.08
2022-10-23T14:22:54.814Z,24.08
2022-10-23T14:25:23.661Z,24.05
2022-10-23T14:27:50.365Z,23.93
2022-10-23T14:30:16.959Z,23.86
2022-10-23T14:32:44.713Z,23.77
2022-10-23T14:35:12.569Z,23.64
2022-10-23T14:37:39.131Z,23.46
2022-10-23T14:40:06.037Z,23.26
2022-10-23T14:42:33.977Z,23.12
2022-10-23T14:45:01.828Z,22.96
2022-10-23T14:47:29.154Z,22.78
2022-10-23T14:49:56.135Z,22.67
2022-10-23T14:52:22.991Z,22.58
2022-10-23T14:54:53.197Z,22.28
2022-10-23T14:57:21.373Z,21.93
2022-10-23T14:59:48.585Z,21.62
2022-10-23T15:02:16.090Z,21.26
2022-10-23T15:04:42.742Z,20.89
2022-10-23T15:07:09.366Z,20.55
2022-10-23T15:09:36.102Z,20.23
2022-10-23T15:12:03.650Z,19.87
2022-10-23T15:14:30.912Z,19.45
2022-10-23T15:16:57.452Z,18.92
2022-10-23T15:19:25.104Z,18.43
2022-10-23T15:21:51.975Z,17.97
2022-10-23T15:24:20.326Z,17.60
2022-10-23T15:26:47.922Z,17.24
2022-10-23T15:29:15.269Z,16.92
2022-10-23T15:31:43.456Z,16.55
2022-10-23T15:34:12.415Z,16.21
2022-10-23T15:36:39.093Z,15.91
2022-10-23T15:39:08.006Z,15.64
2022-10-23T15:41:37.144Z,15.39
2022-10-23T15:44:05.059Z,15.16
2022-10-23T15:46:32.285Z,14.97
2022-10-23T15:48:58.996Z,14.79
2022-10-23T15:51:25.640Z,14.62
2022-10-23T15:53:52.273Z,14.44
2022-10-23T15:56:18.812Z,14.28
2022-10-23T15:58:45.667Z,14.12
2022-10-23T16:01:12.298Z,14.00
2022-10-23T16:03:39.144Z,13.87
2022-10-23T16:06:07.052Z,13.75
2022-10-23T16:08:33.805Z,13.62
2022-10-23T16:11:00.535Z,13.50
2022-10-23T16:13:27.331Z,13.38
2022-10-23T16:15:54.425Z,13.27
2022-10-23T16:18:21.672Z,13.17
2022-10-23T16:20:50.474Z,13.08
2022-10-23T16:23:17.234Z,12.99
2022-10-23T16:25:45.931Z,12.89
2022-10-23T16:28:12.949Z,12.79
2022-10-23T16:30:40.598Z,12.71
2022-10-23T16:33:07.454Z,12.61
2022-10-23T16:35:34.141Z,12.51
2022-10-23T16:38:05.994Z,12.42
2022-10-23T16:40:32.456Z,12.34
2022-10-23T16:43:17.860Z,12.25
2022-10-23T16:46:19.844Z,12.17
2022-10-23T16:48:47.206Z,12.10
2022-10-23T16:51:15.218Z,12.04
2022-10-23T16:53:42.393Z,11.98
2022-10-23T16:56:12.757Z,11.91
2022-10-23T16:58:46.071Z,11.87
2022-10-23T17:01:45.065Z,11.85
2022-10-23T17:04:13.420Z,11.85
2022-10-23T17:06:46.038Z,11.85
2022-10-23T17:12:06.619Z,11.84
2022-10-23T17:14:55.665Z,11.84
2022-10-23T17:17:28.361Z,11.82
2022-10-23T17:19:57.666Z,11.79
2022-10-23T17:22:30.485Z,11.72
2022-10-23T17:24:57.957Z,11.67
2022-10-23T17:27:29.720Z,11.60
2022-10-23T17:29:57.683Z,11.53
2022-10-23T17:32:24.529Z,11.48
2022-10-23T17:35:10.705Z,11.48
2022-10-23T17:38:01.130Z,11.43
2022-10-23T17:40:34.876Z,11.40
2022-10-23T17:43:14.221Z,11.36
2022-10-23T17:45:51.373Z,11.36
2022-10-23T17:48:47.434Z,11.34
2022-10-23T17:51:18.200Z,11.27
2022-10-23T17:53:59.347Z,11.21
2022-10-23T17:56:28.559Z,11.15
2022-10-23T17:59:03.260Z,11.08
2022-10-23T18:01:48.051Z,11.04
2022-10-23T18:04:25.513Z,10.97
2022-10-23T18:07:01.942Z,10.93
2022-10-23T18:09:37.186Z,10.90
2022-10-23T18:12:11.053Z,10.86
2022-10-23T18:14:40.696Z,10.83
2022-10-23T18:17:12.146Z,10.80
2022-10-23T18:20:01.691Z,10.80
2022-10-23T18:22:55.582Z,10.78
2022-10-23T18:25:26.181Z,10.78
2022-10-23T18:27:54.277Z,10.74
2022-10-23T18:30:29.675Z,10.69
2022-10-23T18:32:57.626Z,10.63
2022-10-23T18:35:34.279Z,10.60
2022-10-23T18:38:03.391Z,10.55
2022-10-23T18:40:34.079Z,10.51
2022-10-23T18:43:00.637Z,10.50
2022-10-23T18:45:28.434Z,10.49
2022-10-23T18:47:59.417Z,10.47
2022-10-23T18:50:29.271Z,10.44
2022-10-23T18:55:54.110Z,10.37
2022-10-23T18:58:38.141Z,10.37
2022-10-23T19:01:42.550Z,10.40
2022-10-23T19:04:12.065Z,10.42
2022-10-23T19:06:44.306Z,10.43
2022-10-23T19:09:25.206Z,10.41
2022-10-23T19:12:28.711Z,10.39
2022-10-23T19:15:01.927Z,10.36
2022-10-23T19:17:40.125Z,10.33
2022-10-23T19:20:11.712Z,10.31
2022-10-23T19:22:42.480Z,10.32
2022-10-23T19:25:14.813Z,10.32
2022-10-23T19:27:50.640Z,10.30
2022-10-23T19:30:25.061Z,10.28
2022-10-23T19:32:54.394Z,10.25
2022-10-23T19:35:25.349Z,10.23
2022-10-23T19:38:04.434Z,10.22
2022-10-23T19:40:35.364Z,10.22
2022-10-23T19:43:04.606Z,10.21
2022-10-23T19:45:40.838Z,10.20
2022-10-23T19:48:14.215Z,10.19
2022-10-23T19:51:01.722Z,10.19
2022-10-23T19:53:31.604Z,10.22
2022-10-23T19:56:05.529Z,10.29
2022-10-23T19:58:39.593Z,10.36
2022-10-23T20:01:17.198Z,10.41
2022-10-23T20:03:50.701Z,10.45
2022-10-23T20:06:19.109Z,10.50
2022-10-23T20:09:00.986Z,10.52
2022-10-23T20:11:29.259Z,10.55
2022-10-23T20:14:08.116Z,10.58
2022-10-23T20:17:07.089Z,10.62
2022-10-23T20:19:31.170Z,10.65
2022-10-23T20:22:07.508Z,10.68
2022-10-23T20:24:36.908Z,10.71
2022-10-23T20:27:06.115Z,10.73
2022-10-23T20:29:43.684Z,10.74
2022-10-23T20:32:18.470Z,10.75
2022-10-23T20:35:00.097Z,10.76
2022-10-23T20:37:26.776Z,10.78
2022-10-23T20:39:56.737Z,10.77
2022-10-23T20:42:25.261Z,10.76
2022-10-23T20:44:58.069Z,10.76
2022-10-23T20:47:27.798Z,10.78
2022-10-23T20:50:00.086Z,10.80
2022-10-23T20:52:30.137Z,10.84
2022-10-23T20:54:59.232Z,10.89
2022-10-23T20:57:31.196Z,10.91
2022-10-23T21:00:09.722Z,10.91
2022-10-23T21:02:38.578Z,10.93
2022-10-23T21:05:11.799Z,10.93
2022-10-23T21:07:41.980Z,10.92
2022-10-23T21:10:14.021Z,10.89
2022-10-23T21:12:42.249Z,10.86
2022-10-23T21:15:15.142Z,10.82
2022-10-23T21:17:42.250Z,10.79
2022-10-23T21:20:09.537Z,10.76
2022-10-23T21:22:38.947Z,10.74
2022-10-23T21:25:09.743Z,10.71
2022-10-23T21:27:39.646Z,10.65
2022-10-23T21:30:11.620Z,10.58
2022-10-23T21:32:40.048Z,10.51
2022-10-23T21:35:09.569Z,10.45
2022-10-23T21:37:36.150Z,10.41
2022-10-23T21:40:04.066Z,10.38
2022-10-23T21:42:39.892Z,10.31
2022-10-23T21:45:10.352Z,10.23
2022-10-23T21:47:46.048Z,10.18
2022-10-23T21:50:31.012Z,10.15
2022-10-23T21:52:59.926Z,10.14
2022-10-23T21:55:33.257Z,10.14
2022-10-23T21:58:09.928Z,10.14
2022-10-23T22:00:52.192Z,10.09
2022-10-23T22:03:19.274Z,10.08
2022-10-23T22:05:53.070Z,10.06
2022-10-23T22:08:19.629Z,10.05
2022-10-23T22:10:47.192Z,10.03
2022-10-23T22:13:20.829Z,10.01
2022-10-23T22:15:47.323Z,9.96
2022-10-23T22:18:14.247Z,9.90
2022-10-23T22:20:46.790Z,9.84
2022-10-23T22:23:13.415Z,9.80
2022-10-23T22:25:40.230Z,9.77
2022-10-23T22:28:10.069Z,9.74
2022-10-23T22:30:39.862Z,9.72
2022-10-23T22:33:06.509Z,9.69
2022-10-23T22:35:35.992Z,9.66
2022-10-23T22:38:07.501Z,9.64
2022-10-23T22:40:45.649Z,9.63
2022-10-23T22:43:30.379Z,9.67
2022-10-23T22:46:08.543Z,9.67
2022-10-23T22:48:38.782Z,9.66
2022-10-23T22:51:25.570Z,9.67
2022-10-23T22:54:07.213Z,9.67
2022-10-23T22:56:43.269Z,9.68
2022-10-23T22:59:12.753Z,9.68
2022-10-23T23:01:50.157Z,9.71
2022-10-23T23:04:37.187Z,9.73
2022-10-23T23:07:06.735Z,9.76
2022-10-23T23:09:40.062Z,9.79
2022-10-23T23:12:14.383Z,9.79
2022-10-23T23:14:42.935Z,9.83
2022-10-23T23:17:11.938Z,9.87
2022-10-23T23:19:38.685Z,9.91
2022-10-23T23:22:11.105Z,9.94
2022-10-23T23:24:38.425Z,9.90
2022-10-23T23:27:05.347Z,9.85
2022-10-23T23:29:39.207Z,9.81
2022-10-23T23:32:15.108Z,9.77
2022-10-23T23:34:48.597Z,9.73
2022-10-23T23:37:22.402Z,9.66
2022-10-23T23:39:50.894Z,9.53
2022-10-23T23:42:26.455Z,9.42
2022-10-23T23:45:02.712Z,9.30
2022-10-23T23:47:37.590Z,9.22
2022-10-23T23:50:08.410Z,9.15
2022-10-23T23:52:42.713Z,9.09
2022-10-23T23:55:09.373Z,9.04
2022-10-23T23:57:36.198Z,8.96
